Bakersfield, CA (93301)

5:20 PM PDT on March 30, 2017 (GMT -0700)
East Hills | | Change Station

Elev 620 ft 35.39 °N, 118.95 °W | Updated 2 seconds ago

Clear
Clear
65.2 °F
Feels Like 65.2 °F
N
4.7
Wind Variable Wind from North
Gusts 8.3 mph

Today
High -- | Low -- °F
--% Chance of Precip.
Yesterday
High -- | Low -- °F
Precip. -- in
Pressure 29.87 in
Visibility 10.0 miles
Clouds Clear
Dew Point 36 °F
Humidity 34%
Rainfall 0.00 in
Snow Depth Not available.
6:45 AM 7:16 PM
Waxing Crescent, 11% visible
METAR KBFL 302354Z 32022G33KT 10SM CLR 21/M02 A2988 RMK AO2 PK WND 32034/2323 SLP114 T02061017 10228 20178 58022
Pressure 29.87 in
Visibility 10.0 miles
Clouds Clear
Dew Point 36 °F
Humidity 34%
Rainfall 0.00 in
Snow Depth Not available.
6:45 AM 7:16 PM
Waxing Crescent, 11% visible
METAR KBFL 302354Z 32022G33KT 10SM CLR 21/M02 A2988 RMK AO2 PK WND 32034/2323 SLP114 T02061017 10228 20178 58022

Get Severe Weather Alerts

Thanks for signing up!

Be on the lookout for a verification email in your inbox.

You'll start receiving the daily forecast at 8 AM.

×

10-Day Weather Forecast

Almanac

Astronomy

Mar. 30, 2017 Rise Set
Actual Time
Civil Twilight
Nautical Twilight
Astronomical Twilight
Moon
Length of Visible Light
Length of Day
Tomorrow will be .
, % of the Moon is Illuminated

Today's Extremes

State Highs State Lows

Community

WunderPhotos

Upload Photos

1,962,540 photos uploaded!

WunderBlog® & News

Nearby

Air Quality

  Air Quality AQ Index Pollutant
Not available.

Snow Depth

Station Depth Elevation

Earthquake Activity

City Distance Mag. Time & Date
Minimum magnitude displayed is 2.5.

Earthquake Activity

City Distance Mag. Time & Date
Minimum magnitude displayed is 2.5.

Coastal Water Temperatures

Place Temperature

Stations

Nearby Weather Stations

Station Location Temp. Windchill Dew Point Humidity Wind Precip. Elev Updated Type
                   

Watches & Warnings

There are currently no watches in effect.